Time;durP1;ratioP1;P1;durP2;ratioP2;P2;SDS_P1;SDS_P2;PMS_P1;PMS_P2;Temp;Humidity;BMP_temperature;BMP_pressure;BME280_temperature;BME280_humidity;BME280_pressure;Samples;Min_cycle;Max_cycle;Signal;HPM_P1;HPM_P2
2022/08/09 00:00:32;;;;;;;3.90;3.30;;;19.20;99.90;;;;;;4939932;28;20278;-76
2022/08/09 00:02:59;;;;;;;6.47;3.93;;;19.20;99.90;;;;;;4954533;29;20242;-76
2022/08/09 00:05:26;;;;;;;6.60;3.73;;;19.10;99.90;;;;;;4955442;28;20202;-76
2022/08/09 00:07:52;;;;;;;4.53;3.60;;;19.00;99.90;;;;;;4958189;29;20253;-76
2022/08/09 00:10:21;;;;;;;6.10;3.80;;;18.90;99.90;;;;;;4958393;29;20234;-77
2022/08/09 00:12:48;;;;;;;5.73;3.77;;;18.90;99.90;;;;;;4957939;29;20207;-77
2022/08/09 00:15:15;;;;;;;5.73;3.80;;;18.90;99.90;;;;;;4958041;28;20262;-76
2022/08/09 00:17:42;;;;;;;4.67;3.20;;;18.90;99.90;;;;;;4958060;29;20290;-76
2022/08/09 00:20:11;;;;;;;5.93;3.23;;;18.90;99.90;;;;;;4958023;29;20234;-76
2022/08/09 00:22:37;;;;;;;5.00;3.70;;;18.80;99.90;;;;;;4958068;29;20266;-76
2022/08/09 00:25:05;;;;;;;5.43;3.40;;;18.80;99.90;;;;;;4957999;29;20235;-75
2022/08/09 00:27:34;;;;;;;7.27;3.80;;;18.70;99.90;;;;;;4957796;29;20885;-74
2022/08/09 00:30:02;;;;;;;8.30;3.60;;;18.80;99.90;;;;;;4957897;29;20203;-76
2022/08/09 00:32:29;;;;;;;7.90;3.90;;;18.80;99.90;;;;;;4957556;29;20218;-76
2022/08/09 00:34:56;;;;;;;5.60;3.97;;;18.60;99.90;;;;;;4957520;29;20618;-76
2022/08/09 00:37:23;;;;;;;4.73;3.57;;;18.50;99.90;;;;;;4957947;29;20235;-76
2022/08/09 00:39:50;;;;;;;5.87;3.80;;;18.50;99.90;;;;;;4957878;29;20218;-76
2022/08/09 00:42:17;;;;;;;5.67;4.03;;;18.50;99.90;;;;;;4957837;29;20298;-74
2022/08/09 00:44:45;;;;;;;4.90;3.57;;;18.50;99.90;;;;;;4957468;29;20235;-76
2022/08/09 00:47:12;;;;;;;6.20;3.60;;;18.50;99.90;;;;;;4957383;28;20285;-74
2022/08/09 00:49:39;;;;;;;5.57;3.53;;;18.40;99.90;;;;;;4957315;29;20239;-74
2022/08/09 00:52:06;;;;;;;7.63;4.10;;;18.40;99.90;;;;;;4957376;29;20239;-72
2022/08/09 00:54:33;;;;;;;7.20;4.03;;;18.40;99.90;;;;;;4957279;29;20698;-75
2022/08/09 00:57:00;;;;;;;9.50;3.50;;;18.30;99.90;;;;;;4957365;28;20226;-74
2022/08/09 00:59:27;;;;;;;6.00;3.60;;;18.30;99.90;;;;;;4957227;29;20742;-76
2022/08/09 01:01:58;;;;;;;6.20;3.90;;;18.20;99.90;;;;;;4956362;29;20327;-76
2022/08/09 01:04:34;;;;;;;6.10;3.70;;;18.20;99.90;;;;;;4957523;29;20241;-76
2022/08/09 01:07:09;;;;;;;5.30;3.63;;;18.20;99.90;;;;;;4957454;29;20222;-76
2022/08/09 01:09:40;;;;;;;5.47;3.47;;;18.10;99.90;;;;;;4956861;29;20238;-77
2022/08/09 01:12:17;;;;;;;4.73;3.83;;;18.10;99.90;;;;;;4957012;29;20251;-76
2022/08/09 01:14:49;;;;;;;7.27;3.63;;;18.10;99.90;;;;;;4957129;29;20238;-77
2022/08/09 01:17:25;;;;;;;6.50;3.70;;;18.00;99.90;;;;;;4955895;28;20270;-76
2022/08/09 01:20:00;;;;;;;4.37;3.50;;;17.90;99.90;;;;;;4957005;29;20204;-76
2022/08/09 01:22:51;;;;;;;5.10;3.57;;;17.80;99.90;;;;;;4957228;29;20628;-76
2022/08/09 01:25:26;;;;;;;4.37;3.50;;;17.80;99.90;;;;;;4957117;29;20226;-76
2022/08/09 01:27:56;;;;;;;6.03;3.70;;;17.70;99.90;;;;;;4956740;29;20261;-76
2022/08/09 01:30:26;;;;;;;6.77;3.67;;;17.70;99.90;;;;;;4956906;28;20234;-76
2022/08/09 01:32:55;;;;;;;7.17;3.80;;;17.70;99.90;;;;;;4956625;29;20238;-76
2022/08/09 01:35:28;;;;;;;5.23;3.60;;;17.70;99.90;;;;;;4956616;28;20211;-76
2022/08/09 01:37:59;;;;;;;4.20;3.40;;;17.60;99.90;;;;;;4956666;29;20238;-76
2022/08/09 01:40:28;;;;;;;6.60;3.67;;;17.60;99.90;;;;;;4956539;28;20238;-77
2022/08/09 01:42:57;;;;;;;4.20;3.63;;;17.50;99.90;;;;;;4956239;28;20235;-76
2022/08/09 01:45:26;;;;;;;6.00;3.77;;;17.50;99.90;;;;;;4956430;29;20235;-76
2022/08/09 01:47:55;;;;;;;5.93;4.00;;;17.60;99.90;;;;;;4956387;28;20750;-76
2022/08/09 01:50:24;;;;;;;4.17;3.53;;;17.60;99.90;;;;;;4956446;29;20297;-76
2022/08/09 01:52:52;;;;;;;8.10;3.83;;;17.50;99.90;;;;;;4956202;29;20730;-76
2022/08/09 01:55:21;;;;;;;5.00;3.50;;;17.50;99.90;;;;;;4956279;28;20259;-76
2022/08/09 01:57:50;;;;;;;5.20;3.73;;;17.50;99.90;;;;;;4956264;29;20326;-76
2022/08/09 02:00:18;;;;;;;6.47;3.90;;;17.50;99.90;;;;;;4957429;28;20675;-76
2022/08/09 02:02:48;;;;;;;5.30;3.90;;;17.40;99.90;;;;;;4956138;29;20242;-76
2022/08/09 02:05:18;;;;;;;6.20;4.00;;;17.40;99.90;;;;;;4956369;29;20249;-76
2022/08/09 02:07:49;;;;;;;7.47;3.73;;;17.40;99.90;;;;;;4955779;29;20203;-77
2022/08/09 02:10:19;;;;;;;6.43;3.63;;;17.20;99.90;;;;;;4955808;29;20239;-76
2022/08/09 02:12:47;;;;;;;6.07;3.63;;;17.20;99.90;;;;;;4956239;29;20234;-76
2022/08/09 02:15:17;;;;;;;7.63;3.87;;;17.20;99.90;;;;;;4955744;29;20234;-76
2022/08/09 02:17:47;;;;;;;7.20;3.50;;;17.20;99.90;;;;;;4955595;29;20670;-76
2022/08/09 02:20:14;;;;;;;6.53;3.87;;;17.20;99.90;;;;;;4955090;29;20261;-76
2022/08/09 02:22:48;;;;;;;5.10;3.80;;;17.20;99.90;;;;;;4935978;29;20232;-76
2022/08/09 02:25:19;;;;;;;6.93;3.83;;;17.10;99.90;;;;;;4936656;29;20295;-76
2022/08/09 02:27:54;;;;;;;6.13;3.90;;;17.20;99.90;;;;;;4936161;29;20204;-76
2022/08/09 02:30:22;;;;;;;4.43;3.70;;;17.10;99.90;;;;;;4936468;29;20249;-76
2022/08/09 02:32:51;;;;;;;4.83;4.17;;;17.10;99.90;;;;;;4936728;29;20287;-76
2022/08/09 02:35:21;;;;;;;5.47;4.00;;;17.10;99.90;;;;;;4936324;29;20240;-76
2022/08/09 02:37:51;;;;;;;4.70;4.23;;;17.10;99.90;;;;;;4936371;29;20256;-76
2022/08/09 02:40:21;;;;;;;7.00;4.00;;;17.10;99.90;;;;;;4936415;29;20641;-76
2022/08/09 02:42:51;;;;;;;4.87;3.67;;;17.00;99.90;;;;;;4935281;29;20283;-76
2022/08/09 02:45:24;;;;;;;6.07;4.03;;;16.90;99.90;;;;;;4935856;29;20219;-76
2022/08/09 02:47:55;;;;;;;5.60;4.27;;;16.80;99.90;;;;;;4936092;29;20242;-76
2022/08/09 02:50:26;;;;;;;7.30;4.37;;;16.80;99.90;;;;;;4936040;29;20242;-76
2022/08/09 02:53:03;;;;;;;4.37;3.93;;;16.70;99.90;;;;;;4936278;29;20204;-77
2022/08/09 02:55:31;;;;;;;5.33;4.00;;;16.70;99.90;;;;;;4936433;29;20243;-76
2022/08/09 02:58:00;;;;;;;6.03;3.83;;;16.70;99.90;;;;;;4935894;29;20334;-76
2022/08/09 03:00:29;;;;;;;4.83;4.03;;;16.60;99.90;;;;;;4940110;29;20269;-76
2022/08/09 03:02:59;;;;;;;8.73;4.57;;;16.60;99.90;;;;;;4955065;29;20702;-76
2022/08/09 03:05:27;;;;;;;6.23;4.40;;;16.60;99.90;;;;;;4955413;29;20203;-76
2022/08/09 03:07:55;;;;;;;5.90;4.40;;;16.60;99.90;;;;;;4938318;29;20286;-76
2022/08/09 03:10:24;;;;;;;7.53;4.30;;;16.50;99.90;;;;;;4954955;29;20218;-76
2022/08/09 03:12:51;;;;;;;10.20;4.57;;;16.50;99.90;;;;;;4954758;29;20305;-76
2022/08/09 03:15:19;;;;;;;5.93;4.00;;;16.50;99.90;;;;;;4954787;29;20238;-76
2022/08/09 03:17:47;;;;;;;5.30;4.20;;;16.40;99.90;;;;;;4954972;29;20317;-76
2022/08/09 03:20:15;;;;;;;5.57;4.63;;;16.30;99.90;;;;;;4954746;29;20241;-76
2022/08/09 03:22:45;;;;;;;6.30;4.17;;;16.30;99.90;;;;;;4955259;29;20211;-76
2022/08/09 03:25:13;;;;;;;5.53;4.27;;;16.20;99.90;;;;;;4968793;28;20210;-76
2022/08/09 03:27:42;;;;;;;5.93;4.33;;;16.10;99.90;;;;;;4973763;28;20226;-76
2022/08/09 03:30:11;;;;;;;5.87;4.40;;;16.10;99.90;;;;;;4974066;28;20199;-76
2022/08/09 03:32:39;;;;;;;7.40;4.33;;;16.10;99.90;;;;;;4974226;28;20547;-76
2022/08/09 03:35:06;;;;;;;6.87;4.73;;;16.00;99.90;;;;;;4973875;28;20293;-76
2022/08/09 03:37:34;;;;;;;5.40;4.27;;;16.00;99.90;;;;;;4973976;28;20814;-76
2022/08/09 03:40:01;;;;;;;6.07;4.00;;;16.10;99.90;;;;;;4974624;28;20741;-76
2022/08/09 03:42:28;;;;;;;5.93;4.37;;;16.00;99.90;;;;;;4977617;28;20206;-76
2022/08/09 03:44:55;;;;;;;6.23;4.70;;;15.90;99.90;;;;;;4977993;28;20667;-77
2022/08/09 03:47:22;;;;;;;5.70;4.43;;;15.90;99.90;;;;;;4978047;28;20285;-76
2022/08/09 03:49:50;;;;;;;6.30;4.93;;;15.90;99.90;;;;;;4978052;28;20206;-76
2022/08/09 03:52:19;;;;;;;5.70;4.33;;;16.00;99.90;;;;;;4977836;28;20646;-76
2022/08/09 03:54:50;;;;;;;5.90;4.60;;;15.90;99.90;;;;;;4977626;28;20285;-76
2022/08/09 03:57:18;;;;;;;8.13;4.60;;;15.70;99.90;;;;;;4977460;28;20328;-76
2022/08/09 03:59:45;;;;;;;6.13;4.90;;;15.60;99.90;;;;;;4977423;28;20242;-77
2022/08/09 04:02:12;;;;;;;5.03;4.47;;;15.60;99.90;;;;;;4944494;28;20291;-76
2022/08/09 04:04:39;;;;;;;8.73;5.00;;;15.50;99.90;;;;;;4938893;29;20243;-76
2022/08/09 04:07:06;;;;;;;8.37;5.13;;;15.60;99.90;;;;;;4939234;29;20287;-76
2022/08/09 04:09:33;;;;;;;7.20;5.23;;;15.60;99.90;;;;;;4938624;29;20664;-76
2022/08/09 04:12:33;;;;;;;5.23;4.70;;;15.50;99.90;;;;;;4939032;29;20286;-76
2022/08/09 04:15:00;;;;;;;7.83;4.43;;;15.60;99.90;;;;;;4939034;29;20290;-76
2022/08/09 04:17:27;;;;;;;6.67;4.40;;;15.60;99.90;;;;;;4938896;29;20767;-76
2022/08/09 04:19:54;;;;;;;6.87;4.60;;;15.70;99.90;;;;;;4938805;29;20239;-76
2022/08/09 04:22:21;;;;;;;6.80;4.40;;;15.80;99.90;;;;;;4938958;29;20246;-76
2022/08/09 04:24:47;;;;;;;6.77;4.53;;;15.70;99.90;;;;;;4938242;29;20272;-76
2022/08/09 04:27:16;;;;;;;7.00;4.23;;;15.60;99.90;;;;;;4938824;29;20291;-76
2022/08/09 04:29:43;;;;;;;6.07;4.57;;;15.60;99.90;;;;;;4939151;29;20235;-76
2022/08/09 04:32:09;;;;;;;6.30;4.50;;;15.60;99.90;;;;;;4938456;29;20259;-76
2022/08/09 04:34:36;;;;;;;7.83;4.63;;;15.50;99.90;;;;;;4938651;29;20657;-76
2022/08/09 04:37:03;;;;;;;7.97;4.90;;;15.60;99.90;;;;;;4938681;29;20314;-76
2022/08/09 04:39:32;;;;;;;7.27;4.90;;;15.50;99.90;;;;;;4938217;29;20294;-76
2022/08/09 04:41:59;;;;;;;6.33;4.60;;;15.50;99.90;;;;;;4938583;29;20228;-76
2022/08/09 04:44:27;;;;;;;7.63;4.83;;;15.50;99.90;;;;;;4938457;29;20231;-76
2022/08/09 04:46:55;;;;;;;5.77;4.30;;;15.50;99.90;;;;;;4938351;29;20299;-76
2022/08/09 04:49:22;;;;;;;6.17;4.83;;;15.50;99.90;;;;;;4938679;29;20259;-76
2022/08/09 04:51:49;;;;;;;8.47;5.00;;;15.40;99.90;;;;;;4937822;29;20208;-76
2022/08/09 04:54:16;;;;;;;6.53;4.50;;;15.40;99.90;;;;;;4938190;29;20208;-76
2022/08/09 04:56:43;;;;;;;8.47;5.03;;;15.40;99.90;;;;;;4938191;29;20255;-76
2022/08/09 04:59:10;;;;;;;11.57;5.20;;;15.30;99.90;;;;;;4938262;29;20255;-76
2022/08/09 05:01:38;;;;;;;7.00;5.23;;;15.30;99.90;;;;;;4951474;29;20326;-76
2022/08/09 05:04:05;;;;;;;6.73;4.60;;;15.30;99.90;;;;;;4937975;29;20270;-76
2022/08/09 05:06:32;;;;;;;6.23;5.07;;;15.30;99.90;;;;;;4937944;29;20231;-76
2022/08/09 05:08:59;;;;;;;8.70;5.03;;;15.40;99.90;;;;;;4937667;29;20283;-76
2022/08/09 05:11:26;;;;;;;5.93;4.70;;;15.40;99.90;;;;;;4938342;29;20231;-76
2022/08/09 05:13:53;;;;;;;6.63;5.33;;;15.40;99.90;;;;;;4937969;29;20212;-76
2022/08/09 05:16:20;;;;;;;5.83;4.77;;;15.40;99.90;;;;;;4937895;29;20744;-76
2022/08/09 05:18:48;;;;;;;7.87;5.20;;;15.40;99.90;;;;;;4938132;29;20283;-76
2022/08/09 05:21:16;;;;;;;5.90;4.90;;;15.50;99.90;;;;;;4937841;29;20246;-76
2022/08/09 05:23:43;;;;;;;7.20;5.07;;;15.60;99.90;;;;;;4937674;29;20219;-76
2022/08/09 05:26:10;;;;;;;6.77;4.70;;;15.60;99.90;;;;;;4942428;29;20298;-76
2022/08/09 05:28:37;;;;;;;5.93;4.83;;;15.90;99.90;;;;;;4956945;29;20207;-76
2022/08/09 05:31:04;;;;;;;6.37;5.30;;;15.80;99.90;;;;;;4939691;29;20235;-76
2022/08/09 05:33:31;;;;;;;10.43;5.60;;;16.00;99.90;;;;;;4956862;29;20239;-76
2022/08/09 05:35:59;;;;;;;7.17;5.10;;;15.70;99.90;;;;;;4956508;29;20641;-76
2022/08/09 05:38:26;;;;;;;6.73;4.70;;;16.90;99.90;;;;;;4956205;29;20266;-76
2022/08/09 05:40:53;;;;;;;6.43;4.93;;;16.40;99.90;;;;;;4956526;29;20242;-77
2022/08/09 05:43:20;;;;;;;5.83;4.60;;;16.60;99.90;;;;;;4956355;29;20245;-76
2022/08/09 05:45:47;;;;;;;5.33;4.50;;;16.80;99.90;;;;;;4956860;29;20235;-76
2022/08/09 05:48:13;;;;;;;8.90;5.10;;;17.10;99.90;;;;;;4956437;29;20285;-76
2022/08/09 05:50:42;;;;;;;5.87;4.30;;;17.40;99.90;;;;;;4956491;29;20230;-76
2022/08/09 05:53:11;;;;;;;4.57;4.00;;;17.50;99.90;;;;;;4955869;29;20202;-76
2022/08/09 05:55:38;;;;;;;6.30;4.27;;;17.90;99.90;;;;;;4956452;29;20262;-76
2022/08/09 05:58:05;;;;;;;6.57;4.20;;;18.00;99.90;;;;;;4956286;29;20238;-76
2022/08/09 06:00:32;;;;;;;5.10;4.00;;;18.30;99.90;;;;;;4956123;29;20274;-76
2022/08/09 06:03:01;;;;;;;6.63;4.50;;;18.80;99.90;;;;;;4955539;28;20255;-76
2022/08/09 06:05:29;;;;;;;7.30;4.40;;;19.10;99.90;;;;;;4956022;29;20239;-76
2022/08/09 06:07:56;;;;;;;4.97;3.97;;;19.40;99.90;;;;;;4955889;28;20612;-76
2022/08/09 06:10:36;;;;;;;5.30;3.90;;;20.10;99.90;;;;;;4956104;29;20203;-77
2022/08/09 06:13:04;;;;;;;5.15;3.90;;;20.90;99.90;;;;;;4956100;29;20203;-76
2022/08/09 06:15:31;;;;;;;5.35;4.07;;;20.80;99.90;;;;;;4955850;29;20207;-77
2022/08/09 06:17:58;;;;;;;7.97;3.90;;;21.10;99.90;;;;;;4956042;28;20258;-76
2022/08/09 06:20:24;;;;;;;5.30;3.70;;;21.50;99.90;;;;;;4955730;29;20254;-77
2022/08/09 06:22:51;;;;;;;4.38;3.90;;;21.60;99.90;;;;;;4955969;29;20250;-77
2022/08/09 06:25:18;;;;;;;4.97;3.60;;;21.70;99.90;;;;;;4955921;28;20701;-76
2022/08/09 06:27:47;;;;;;;5.43;3.50;;;22.20;99.90;;;;;;4955702;28;20196;-77
2022/08/09 06:30:14;;;;;;;7.20;3.53;;;22.40;99.90;;;;;;4955609;29;20245;-77
2022/08/09 06:32:41;;;;;;;5.40;3.78;;;22.50;99.90;;;;;;4955897;29;20618;-75
2022/08/09 06:35:09;;;;;;;4.15;3.28;;;23.20;99.90;;;;;;4955613;29;20290;-74
2022/08/09 06:37:36;;;;;;;6.13;3.17;;;23.10;99.90;;;;;;4955442;29;20238;-75
2022/08/09 06:40:04;;;;;;;5.88;3.50;;;23.00;99.90;;;;;;4955522;29;20742;-77
2022/08/09 06:42:32;;;;;;;4.15;2.85;;;23.30;99.90;;;;;;4955455;28;20286;-75
2022/08/09 06:45:00;;;;;;;4.03;3.42;;;23.70;99.90;;;;;;4955408;28;20241;-77
2022/08/09 06:47:27;;;;;;;4.07;3.05;;;23.40;99.90;;;;;;4955282;28;20236;-75
2022/08/09 06:49:54;;;;;;;4.80;3.10;;;24.30;99.90;;;;;;4955394;29;20238;-77
2022/08/09 06:52:21;;;;;;;4.20;2.85;;;24.60;99.90;;;;;;4955474;29;20234;-74
2022/08/09 06:54:48;;;;;;;4.25;2.70;;;24.80;99.90;;;;;;4955364;29;20588;-75
2022/08/09 06:57:15;;;;;;;2.97;2.78;;;24.90;99.90;;;;;;4955102;28;20322;-77
2022/08/09 06:59:42;;;;;;;3.80;2.80;;;25.20;99.90;;;;;;4955224;28;20245;-77
2022/08/09 07:02:10;;;;;;;3.88;2.90;;;25.50;99.90;;;;;;4955158;28;20245;-76
2022/08/09 07:04:37;;;;;;;5.45;2.75;;;25.20;99.90;;;;;;4954697;28;20286;-77
2022/08/09 07:07:04;;;;;;;3.85;2.70;;;25.00;99.90;;;;;;4954980;29;20242;-77
2022/08/09 07:09:31;;;;;;;3.83;2.60;;;25.50;99.90;;;;;;4955178;29;20267;-77
2022/08/09 07:11:58;;;;;;;5.22;2.80;;;25.20;99.90;;;;;;4955326;29;20574;-77
2022/08/09 07:14:25;;;;;;;4.93;3.55;;;25.20;99.90;;;;;;4954659;28;20231;-77
2022/08/09 07:16:52;;;;;;;4.47;2.50;;;25.30;99.90;;;;;;4954648;29;20245;-77
2022/08/09 07:19:20;;;;;;;3.40;2.67;;;26.20;99.90;;;;;;4954419;29;20782;-76
2022/08/09 07:21:47;;;;;;;5.72;2.90;;;25.60;99.90;;;;;;4954771;29;20290;-77
2022/08/09 07:24:14;;;;;;;3.78;2.30;;;26.80;99.90;;;;;;4955274;29;20202;-77
2022/08/09 07:26:41;;;;;;;4.95;2.80;;;27.40;99.90;;;;;;4954979;29;20259;-77
2022/08/09 07:29:08;;;;;;;3.35;2.42;;;27.00;99.90;;;;;;4954825;29;20951;-77
2022/08/09 07:31:35;;;;;;;4.30;2.60;;;26.30;99.90;;;;;;4937766;29;20209;-77
2022/08/09 07:34:02;;;;;;;3.88;2.70;;;27.40;99.90;;;;;;4954558;29;20206;-77
2022/08/09 07:36:31;;;;;;;3.17;2.45;;;26.90;99.90;;;;;;4955001;29;20238;-77
2022/08/09 07:38:58;;;;;;;4.45;2.38;;;27.20;99.90;;;;;;4954601;29;20230;-77
2022/08/09 07:41:25;;;;;;;4.32;2.45;;;27.50;99.90;;;;;;4954874;29;20238;-77
2022/08/09 07:43:52;;;;;;;4.13;2.40;;;27.10;99.90;;;;;;4954702;29;20766;-77
2022/08/09 07:46:19;;;;;;;2.65;2.38;;;27.10;99.90;;;;;;4954887;29;20250;-77
2022/08/09 07:48:46;;;;;;;3.40;2.33;;;27.10;98.90;;;;;;4954209;29;20206;-77
2022/08/09 07:51:13;;;;;;;4.70;2.10;;;27.20;99.90;;;;;;4954638;29;20199;-77
2022/08/09 07:53:41;;;;;;;3.33;2.25;;;27.60;99.90;;;;;;4954769;29;20239;-77
2022/08/09 07:56:08;;;;;;;4.43;2.20;;;26.70;98.80;;;;;;4954825;29;20239;-77
2022/08/09 07:58:35;;;;;;;7.25;2.03;;;27.10;98.60;;;;;;4954711;29;20274;-77
2022/08/09 08:01:02;;;;;;;3.60;2.05;;;27.80;93.80;;;;;;4967016;28;20265;-77
2022/08/09 08:03:29;;;;;;;3.63;1.98;;;27.20;94.10;;;;;;4973485;28;20262;-77
2022/08/09 08:05:56;;;;;;;6.78;2.10;;;27.40;91.80;;;;;;4973468;28;20207;-77
2022/08/09 08:08:24;;;;;;;5.15;2.05;;;27.50;90.40;;;;;;4973627;28;20657;-77
2022/08/09 08:10:52;;;;;;;4.05;2.10;;;27.70;85.20;;;;;;4973631;28;20206;-77
2022/08/09 08:13:19;;;;;;;4.40;1.90;;;27.50;88.90;;;;;;4973681;28;20230;-77
2022/08/09 08:15:46;;;;;;;4.30;1.73;;;27.90;80.10;;;;;;4973611;28;20212;-77
2022/08/09 08:18:13;;;;;;;2.90;1.63;;;27.50;83.70;;;;;;4973367;28;20261;-77
2022/08/09 08:20:40;;;;;;;3.25;1.92;;;28.50;74.50;;;;;;4973925;28;20230;-77
2022/08/09 08:23:07;;;;;;;4.22;2.05;;;28.00;73.40;;;;;;4973687;28;21354;-77
2022/08/09 08:25:35;;;;;;;3.13;2.00;;;28.20;73.10;;;;;;4973818;28;20623;-77
2022/08/09 08:28:04;;;;;;;2.80;1.80;;;28.90;63.20;;;;;;4977099;28;20234;-77
2022/08/09 08:30:31;;;;;;;3.08;2.00;;;28.90;59.50;;;;;;4977019;28;20687;-77
2022/08/09 08:32:58;;;;;;;4.28;1.90;;;28.10;63.50;;;;;;4976840;28;20328;-77
2022/08/09 08:35:25;;;;;;;2.10;1.90;;;27.60;70.60;;;;;;4977329;28;20211;-77
2022/08/09 08:37:52;;;;;;;3.53;2.05;;;28.00;65.10;;;;;;4976948;28;20318;-77
2022/08/09 08:40:19;;;;;;;3.25;2.00;;;27.20;70.40;;;;;;4977384;28;20209;-77
2022/08/09 08:42:46;;;;;;;3.83;2.00;;;28.40;67.60;;;;;;4977058;28;20202;-77
2022/08/09 08:45:17;;;;;;;2.53;1.90;;;28.80;58.70;;;;;;4991866;28;21544;-77
2022/08/09 08:47:45;;;;;;;3.03;1.90;;;29.00;54.80;;;;;;4976548;28;20233;-77
2022/08/09 08:50:15;;;;;;;3.40;1.77;;;29.70;45.40;;;;;;4976654;28;20221;-77
2022/08/09 08:52:43;;;;;;;4.03;2.00;;;30.00;38.70;;;;;;4976681;28;20209;-77
2022/08/09 08:55:10;;;;;;;4.93;1.92;;;30.00;34.40;;;;;;4977038;28;20230;-77
2022/08/09 08:57:38;;;;;;;3.50;2.00;;;30.40;33.90;;;;;;4976802;28;20222;-77
2022/08/09 09:00:07;;;;;;;3.10;1.95;;;29.50;30.00;;;;;;4974984;28;20757;-77
2022/08/09 09:02:37;;;;;;;3.97;1.88;;;27.90;54.70;;;;;;4942783;29;20306;-77
2022/08/09 09:05:05;;;;;;;3.35;2.10;;;28.50;50.10;;;;;;4938098;29;20650;-77
2022/08/09 09:07:35;;;;;;;3.28;1.77;;;28.00;54.10;;;;;;4938130;29;20243;-77
2022/08/09 09:10:07;;;;;;;3.15;1.90;;;29.10;45.50;;;;;;4937773;29;20242;-77
2022/08/09 09:12:35;;;;;;;3.03;1.65;;;29.60;37.90;;;;;;4937919;29;20291;-76
2022/08/09 09:15:03;;;;;;;3.67;1.83;;;29.20;37.60;;;;;;4937339;29;20247;-74
2022/08/09 09:17:30;;;;;;;2.95;1.90;;;29.10;39.80;;;;;;4937735;29;20204;-74
2022/08/09 09:19:58;;;;;;;2.38;1.90;;;28.50;49.10;;;;;;4937799;29;20231;-74
2022/08/09 09:22:25;;;;;;;4.53;2.00;;;29.30;39.00;;;;;;4937705;29;20632;-74
2022/08/09 09:24:54;;;;;;;5.03;2.05;;;29.10;35.20;;;;;;4937725;29;20214;-74
2022/08/09 09:27:25;;;;;;;5.00;2.20;;;30.10;25.70;;;;;;4937462;29;20236;-77
2022/08/09 09:29:53;;;;;;;3.03;2.00;;;29.60;27.40;;;;;;4937307;29;20995;-77
2022/08/09 09:32:22;;;;;;;2.50;1.98;;;29.20;32.40;;;;;;4937597;29;20767;-77
2022/08/09 09:35:04;;;;;;;4.55;1.85;;;29.20;36.80;;;;;;4937408;29;20560;-74
2022/08/09 09:37:31;;;;;;;4.28;2.03;;;29.70;34.80;;;;;;4936418;29;20249;-74
2022/08/09 09:39:58;;;;;;;4.00;1.90;;;30.10;27.10;;;;;;4937465;29;20402;-74
2022/08/09 09:42:28;;;;;;;3.85;2.00;;;29.60;28.90;;;;;;4937348;29;20239;-74
2022/08/09 09:44:57;;;;;;;4.90;1.92;;;29.30;31.60;;;;;;4936777;29;20211;-74
2022/08/09 09:47:25;;;;;;;3.22;1.80;;;29.30;32.40;;;;;;4937296;29;20199;-77
2022/08/09 09:49:53;;;;;;;2.88;1.77;;;30.30;25.30;;;;;;4937173;29;20204;-77
2022/08/09 09:52:22;;;;;;;3.40;1.77;;;29.60;32.20;;;;;;4937290;29;20207;-77
2022/08/09 09:54:49;;;;;;;4.05;1.92;;;30.30;26.40;;;;;;4937201;29;20311;-77
2022/08/09 09:57:18;;;;;;;3.28;1.92;;;31.20;18.20;;;;;;4920090;29;20290;-77
2022/08/09 09:59:46;;;;;;;4.40;2.13;;;30.40;19.90;;;;;;4936624;29;20304;-77
2022/08/09 10:02:14;;;;;;;2.25;2.00;;;31.20;10.50;;;;;;4954926;28;20572;-77
2022/08/09 10:04:42;;;;;;;4.93;1.77;;;30.40;13.80;;;;;;4956388;29;20255;-77
2022/08/09 10:07:24;;;;;;;2.72;1.88;;;30.90;12.90;;;;;;4956384;29;20238;-77
2022/08/09 10:09:53;;;;;;;2.78;1.88;;;31.00;13.50;;;;;;4955957;29;20211;-77
2022/08/09 10:12:26;;;;;;;2.25;1.92;;;31.40;8.60;;;;;;4955826;29;20211;-78
2022/08/09 10:15:06;;;;;;;3.58;1.98;;;31.20;8.20;;;;;;4955698;29;20245;-76
2022/08/09 10:17:34;;;;;;;2.13;1.73;;;31.30;9.60;;;;;;4955571;29;20245;-74
2022/08/09 10:20:04;;;;;;;4.07;1.88;;;31.50;5.10;;;;;;4955637;29;20318;-74
2022/08/09 10:22:34;;;;;;;4.15;1.98;;;31.50;1.00;;;;;;4955347;29;20234;-75
2022/08/09 10:25:04;;;;;;;4.30;1.88;;;32.80;1.00;;;;;;4955304;29;20203;-75
2022/08/09 10:27:32;;;;;;;4.20;2.22;;;32.60;1.00;;;;;;4955067;29;20686;-75
2022/08/09 10:30:01;;;;;;;2.78;1.70;;;32.80;1.00;;;;;;4968658;28;20198;-75
2022/08/09 10:32:28;;;;;;;3.90;2.05;;;33.10;1.00;;;;;;4974658;28;20206;-74
2022/08/09 10:34:55;;;;;;;2.95;1.80;;;32.00;1.00;;;;;;4974672;28;20237;-74
2022/08/09 10:37:23;;;;;;;3.90;1.90;;;32.70;1.00;;;;;;4974908;28;20294;-74
2022/08/09 10:39:52;;;;;;;3.97;2.10;;;32.30;1.00;;;;;;4974319;28;20237;-74
2022/08/09 10:42:19;;;;;;;3.92;1.88;;;32.30;1.00;;;;;;4974076;28;20198;-74
2022/08/09 10:44:49;;;;;;;3.72;2.28;;;32.50;1.00;;;;;;4974469;28;20245;-74
2022/08/09 10:47:33;;;;;;;2.88;1.80;;;32.80;1.00;;;;;;4974595;28;20297;-74
2022/08/09 10:50:06;;;;;;;3.75;1.83;;;31.80;1.00;;;;;;4974249;28;20233;-75
2022/08/09 10:52:54;;;;;;;3.70;1.73;;;32.00;1.00;;;;;;4974424;28;20211;-74
2022/08/09 10:55:25;;;;;;;3.88;2.00;;;32.00;1.00;;;;;;4974588;28;20230;-74
2022/08/09 10:57:53;;;;;;;3.78;1.75;;;32.30;1.00;;;;;;4973863;28;20313;-74
2022/08/09 11:00:40;;;;;;;2.95;1.55;;;33.00;1.00;;;;;;4974109;28;20317;-75
2022/08/09 11:03:22;;;;;;;2.47;1.88;;;32.10;1.00;;;;;;4974467;28;20293;-77
2022/08/09 11:06:24;;;;;;;2.10;1.80;;;32.00;1.00;;;;;;4955119;29;20238;-77
2022/08/09 11:08:52;;;;;;;2.45;1.75;;;32.70;1.00;;;;;;4933736;29;20199;-77
2022/08/09 11:11:21;;;;;;;2.83;1.90;;;32.90;1.00;;;;;;4933335;29;20231;-77
2022/08/09 11:14:28;;;;;;;2.33;1.90;;;32.80;1.00;;;;;;4933421;29;20219;-77
2022/08/09 11:16:55;;;;;;;2.72;1.75;;;32.40;1.00;;;;;;4933256;29;20231;-77
2022/08/09 11:19:58;;;;;;;2.63;2.00;;;32.30;1.00;;;;;;4933386;29;20287;-77
2022/08/09 11:22:59;;;;;;;2.42;1.70;;;33.00;1.00;;;;;;4928898;29;20209;-77
2022/08/09 11:25:41;;;;;;;2.67;2.00;;;32.80;1.00;;;;;;4933196;29;20207;-77
2022/08/09 11:28:34;;;;;;;5.50;2.10;;;33.60;1.00;;;;;;4933596;29;20208;-77
2022/08/09 11:31:03;;;;;;;3.40;1.92;;;32.40;1.00;;;;;;4927039;29;20207;-77
2022/08/09 11:33:41;;;;;;;3.50;1.60;;;32.20;1.00;;;;;;4933227;29;20275;-77
2022/08/09 11:36:09;;;;;;;4.10;1.80;;;33.30;1.00;;;;;;4933599;29;20291;-77
2022/08/09 11:38:36;;;;;;;3.35;1.90;;;33.10;1.00;;;;;;4933796;29;20300;-77
2022/08/09 11:41:27;;;;;;;4.97;1.90;;;32.70;1.00;;;;;;4954092;29;20203;-77
2022/08/09 11:43:56;;;;;;;2.40;1.73;;;32.90;1.00;;;;;;4954525;29;20203;-77
2022/08/09 11:46:23;;;;;;;4.50;2.03;;;34.00;1.00;;;;;;4954522;29;20615;-77
2022/08/09 11:48:52;;;;;;;3.08;2.28;;;33.30;1.00;;;;;;4954602;29;20203;-77
2022/08/09 11:51:20;;;;;;;3.13;1.70;;;33.70;1.00;;;;;;4954403;29;20683;-77
2022/08/09 11:53:48;;;;;;;3.67;2.00;;;33.40;1.00;;;;;;4954455;29;20210;-77
2022/08/09 11:56:33;;;;;;;2.70;1.77;;;33.40;1.00;;;;;;4953955;29;20235;-77
2022/08/09 11:59:01;;;;;;;2.70;1.80;;;34.80;1.00;;;;;;4954393;29;20267;-77
2022/08/09 12:01:34;;;;;;;3.40;1.95;;;34.50;1.00;;;;;;4943256;29;20271;-77
2022/08/09 12:04:04;;;;;;;4.88;1.90;;;34.50;1.00;;;;;;4939448;29;20231;-77
2022/08/09 12:06:32;;;;;;;3.15;1.77;;;35.00;1.00;;;;;;4938876;29;20211;-74
2022/08/09 12:09:01;;;;;;;3.88;1.80;;;34.90;1.00;;;;;;4937886;29;20675;-74
2022/08/09 12:11:28;;;;;;;2.53;1.83;;;35.00;1.00;;;;;;4938426;29;20296;-74
2022/08/09 12:13:57;;;;;;;2.75;1.95;;;35.80;1.00;;;;;;4938374;29;20239;-77
2022/08/09 12:16:30;;;;;;;3.67;1.90;;;35.80;1.00;;;;;;4938789;29;20227;-75
2022/08/09 12:18:58;;;;;;;3.42;1.70;;;35.30;1.00;;;;;;4938552;29;20231;-74
2022/08/09 12:21:28;;;;;;;3.70;1.70;;;35.70;1.00;;;;;;4938676;29;20823;-77
2022/08/09 12:23:56;;;;;;;3.38;1.80;;;34.60;1.00;;;;;;4938453;29;20214;-77
2022/08/09 12:26:24;;;;;;;4.10;1.88;;;35.30;1.00;;;;;;4938608;29;20204;-77
2022/08/09 12:28:53;;;;;;;2.55;1.80;;;33.80;1.00;;;;;;4938813;29;20207;-77
2022/08/09 12:31:22;;;;;;;2.95;1.80;;;34.10;1.00;;;;;;4942193;29;20203;-74
2022/08/09 12:33:51;;;;;;;1.70;1.60;;;34.60;1.00;;;;;;4957731;29;20203;-77
2022/08/09 12:36:18;;;;;;;2.67;1.55;;;33.60;1.00;;;;;;4957549;28;20207;-75
2022/08/09 12:38:45;;;;;;;3.92;1.83;;;33.80;1.00;;;;;;4957346;28;20670;-75
2022/08/09 12:41:13;;;;;;;1.90;1.75;;;34.60;1.00;;;;;;4957447;29;20245;-75
2022/08/09 12:43:40;;;;;;;2.75;1.80;;;34.60;1.00;;;;;;4957462;28;20211;-74
2022/08/09 12:46:10;;;;;;;2.97;1.80;;;34.50;1.00;;;;;;4957455;29;20210;-77
2022/08/09 12:48:37;;;;;;;2.83;2.00;;;34.30;1.00;;;;;;4957539;29;20211;-77
2022/08/09 12:51:06;;;;;;;3.60;1.50;;;34.60;1.00;;;;;;4957472;29;20293;-77
2022/08/09 12:53:36;;;;;;;2.30;1.70;;;34.20;1.00;;;;;;4956935;29;20238;-77
2022/08/09 12:56:14;;;;;;;3.38;1.60;;;35.30;1.00;;;;;;4957411;29;20207;-77
2022/08/09 12:58:43;;;;;;;3.28;1.80;;;35.50;1.00;;;;;;4957380;29;20254;-77